createdAt,value
2023-04-11T00:01:04.873Z,95.70
2023-04-11T00:03:33.023Z,95.80
2023-04-11T00:06:00.318Z,95.70
2023-04-11T00:08:27.341Z,95.90
2023-04-11T00:10:54.413Z,95.80
2023-04-11T00:13:21.541Z,95.80
2023-04-11T00:15:48.600Z,96.00
2023-04-11T00:18:15.617Z,96.00
2023-04-11T00:20:43.646Z,95.90
2023-04-11T00:23:12.057Z,95.80
2023-04-11T00:25:39.114Z,95.70
2023-04-11T00:28:06.166Z,95.70
2023-04-11T00:30:33.249Z,95.60
2023-04-11T00:33:03.812Z,95.50
2023-04-11T00:35:34.608Z,95.50
2023-04-11T00:38:02.299Z,95.50
2023-04-11T00:40:29.621Z,95.40
2023-04-11T00:42:56.744Z,95.70
2023-04-11T00:45:23.830Z,95.50
2023-04-11T00:47:50.941Z,95.70
2023-04-11T00:50:18.366Z,95.80
2023-04-11T00:52:46.356Z,96.10
2023-04-11T00:55:13.410Z,96.10
2023-04-11T00:57:41.899Z,95.70
2023-04-11T01:00:10.847Z,96.00
2023-04-11T01:02:38.609Z,96.20
2023-04-11T01:05:06.429Z,95.60
2023-04-11T01:07:34.029Z,95.50
2023-04-11T01:10:01.464Z,95.40
2023-04-11T01:12:29.403Z,95.30
2023-04-11T01:14:56.493Z,95.60
2023-04-11T01:17:25.819Z,95.60
2023-04-11T01:19:52.897Z,95.50
2023-04-11T01:22:21.069Z,95.70
2023-04-11T01:24:48.470Z,96.00
2023-04-11T01:27:15.621Z,96.10
2023-04-11T01:29:44.390Z,96.30
2023-04-11T01:32:11.732Z,96.30
2023-04-11T01:34:39.852Z,96.80
2023-04-11T01:37:06.957Z,96.60
2023-04-11T01:39:34.015Z,96.80
2023-04-11T01:42:01.100Z,96.60
2023-04-11T01:44:28.813Z,96.80
2023-04-11T01:46:55.883Z,96.60
2023-04-11T01:49:23.825Z,96.70
2023-04-11T01:51:51.910Z,97.10
2023-04-11T01:54:20.507Z,97.70
2023-04-11T01:56:47.619Z,97.70
2023-04-11T01:59:14.766Z,97.80
2023-04-11T02:01:45.105Z,97.60
2023-04-11T02:04:12.476Z,97.60
2023-04-11T02:06:41.670Z,97.50
2023-04-11T02:09:08.722Z,97.40
2023-04-11T02:11:36.271Z,97.20
2023-04-11T02:14:03.581Z,97.40
2023-04-11T02:16:30.994Z,97.10
2023-04-11T02:18:59.401Z,96.70
2023-04-11T02:21:26.698Z,96.20
2023-04-11T02:23:53.845Z,96.00
2023-04-11T02:26:20.976Z,95.10
2023-04-11T02:28:48.187Z,95.10
2023-04-11T02:31:15.372Z,94.50
2023-04-11T02:33:43.811Z,94.20
2023-04-11T02:36:12.374Z,93.70
2023-04-11T02:38:39.525Z,93.30
2023-04-11T02:41:08.311Z,93.20
2023-04-11T02:43:35.505Z,93.10
2023-04-11T02:46:12.559Z,92.70
2023-04-11T02:48:43.116Z,92.70
2023-04-11T02:51:11.630Z,92.50
2023-04-11T02:53:38.772Z,92.20
2023-04-11T02:56:07.247Z,92.00
2023-04-11T02:58:38.833Z,91.70
2023-04-11T03:01:06.722Z,91.50
2023-04-11T03:03:34.205Z,91.20
2023-04-11T03:06:01.470Z,91.20
2023-04-11T03:08:29.293Z,91.00
2023-04-11T03:10:56.420Z,90.90
2023-04-11T03:13:25.298Z,90.90
2023-04-11T03:15:52.364Z,90.60
2023-04-11T03:18:20.346Z,90.60
2023-04-11T03:20:48.703Z,90.40
2023-04-11T03:23:18.103Z,90.90
2023-04-11T03:25:45.579Z,90.60
2023-04-11T03:28:14.081Z,90.60
2023-04-11T03:30:42.577Z,90.80
2023-04-11T03:33:12.250Z,90.30
2023-04-11T03:35:40.334Z,90.40
2023-04-11T03:38:08.371Z,90.60
2023-04-11T03:40:35.687Z,90.50
2023-04-11T03:43:10.765Z,90.20
2023-04-11T03:45:37.922Z,90.00
2023-04-11T03:48:10.592Z,90.10
2023-04-11T03:50:51.014Z,89.90
2023-04-11T03:53:22.469Z,90.20
2023-04-11T03:55:54.330Z,90.30
2023-04-11T03:58:25.337Z,90.00
2023-04-11T04:00:52.424Z,89.60
2023-04-11T04:03:19.753Z,89.70
2023-04-11T04:05:46.957Z,89.40
2023-04-11T04:08:14.042Z,89.10
2023-04-11T04:10:47.050Z,89.40
2023-04-11T04:13:15.219Z,89.00
2023-04-11T04:15:49.945Z,89.10
2023-04-11T04:18:17.317Z,89.60
2023-04-11T04:20:46.733Z,88.80
2023-04-11T04:23:14.177Z,89.10
2023-04-11T04:25:57.962Z,89.20
2023-04-11T04:28:27.149Z,89.10
2023-04-11T04:30:58.022Z,89.40
2023-04-11T04:33:27.889Z,89.20
2023-04-11T04:36:00.045Z,88.50
2023-04-11T04:38:30.843Z,89.20
2023-04-11T04:40:59.621Z,89.40
2023-04-11T04:43:32.264Z,90.10
2023-04-11T04:46:25.409Z,90.90
2023-04-11T04:48:54.250Z,91.20
2023-04-11T04:51:21.472Z,91.70
2023-04-11T04:53:48.549Z,92.10
2023-04-11T04:56:15.954Z,92.70
2023-04-11T04:58:47.163Z,92.60
2023-04-11T05:01:17.069Z,93.00
2023-04-11T05:03:46.813Z,93.30
2023-04-11T05:06:21.261Z,93.50
2023-04-11T05:08:50.194Z,93.60
2023-04-11T05:11:17.308Z,94.00
2023-04-11T05:13:44.418Z,94.50
2023-04-11T05:16:11.621Z,94.50
2023-04-11T05:18:38.720Z,95.00
2023-04-11T05:21:05.851Z,95.80
2023-04-11T05:23:37.847Z,96.40
2023-04-11T05:26:06.710Z,97.60
2023-04-11T05:28:34.544Z,98.20
2023-04-11T05:31:04.661Z,98.80
2023-04-11T05:33:31.868Z,99.50
2023-04-11T05:35:59.572Z,99.00
2023-04-11T05:38:26.775Z,99.20
2023-04-11T05:40:55.246Z,99.30
2023-04-11T05:43:22.301Z,99.30
2023-04-11T05:45:49.485Z,99.40
2023-04-11T05:48:17.505Z,99.20
2023-04-11T05:50:44.513Z,99.20
2023-04-11T05:53:11.760Z,99.70
2023-04-11T05:55:38.790Z,99.80
2023-04-11T05:58:05.942Z,99.90
2023-04-11T06:00:34.072Z,99.90
2023-04-11T06:03:01.784Z,99.90
2023-04-11T06:05:31.585Z,99.90
2023-04-11T06:08:01.765Z,99.90
2023-04-11T06:10:29.556Z,99.90
2023-04-11T06:12:57.980Z,99.90
2023-04-11T06:15:25.701Z,99.90
2023-04-11T06:17:52.911Z,99.90
2023-04-11T06:20:20.530Z,99.90
2023-04-11T06:22:51.136Z,99.90
2023-04-11T06:25:18.822Z,99.90
2023-04-11T06:27:46.138Z,99.90
2023-04-11T06:30:13.522Z,99.90
2023-04-11T06:32:40.764Z,99.90
2023-04-11T06:35:08.064Z,99.90
2023-04-11T06:37:35.168Z,99.90
2023-04-11T06:40:02.193Z,99.90
2023-04-11T06:42:30.515Z,99.90
2023-04-11T06:44:58.621Z,99.90
2023-04-11T06:47:25.856Z,99.90
2023-04-11T06:49:53.048Z,99.90
2023-04-11T06:52:20.144Z,99.90
2023-04-11T06:54:47.582Z,99.90
2023-04-11T06:57:14.841Z,99.90
2023-04-11T06:59:41.994Z,99.90
2023-04-11T07:02:09.224Z,99.90
2023-04-11T07:04:36.701Z,99.90
2023-04-11T07:07:04.844Z,99.90
2023-04-11T07:09:31.876Z,99.90
2023-04-11T07:11:59.225Z,99.90
2023-04-11T07:14:26.385Z,99.90
2023-04-11T07:16:53.462Z,99.90
2023-04-11T07:19:20.586Z,99.90
2023-04-11T07:21:48.813Z,99.90
2023-04-11T07:24:18.451Z,99.90
2023-04-11T07:26:46.409Z,99.90
2023-04-11T07:29:14.946Z,99.90
2023-04-11T07:31:42.191Z,99.90
2023-04-11T07:34:09.338Z,99.90
2023-04-11T07:36:36.483Z,99.90
2023-04-11T07:39:08.902Z,99.90
2023-04-11T07:41:36.541Z,99.90
2023-04-11T07:44:04.328Z,99.90
2023-04-11T07:46:31.702Z,99.90
2023-04-11T07:48:58.723Z,99.90
2023-04-11T07:51:27.176Z,99.90
2023-04-11T07:53:54.604Z,99.90
2023-04-11T07:56:22.967Z,99.90
2023-04-11T07:58:50.059Z,99.90
2023-04-11T08:01:25.069Z,99.90
2023-04-11T08:03:57.147Z,99.90
2023-04-11T08:06:29.054Z,99.90
2023-04-11T08:08:56.262Z,99.90
2023-04-11T08:11:28.918Z,99.90
2023-04-11T08:13:56.206Z,99.90
2023-04-11T08:16:53.273Z,99.90
2023-04-11T08:19:21.117Z,99.90
2023-04-11T08:21:48.490Z,99.90
2023-04-11T08:24:15.796Z,99.90
2023-04-11T08:26:42.873Z,99.90
2023-04-11T08:29:12.919Z,99.90
2023-04-11T08:31:44.395Z,99.90
2023-04-11T08:34:11.837Z,99.90
2023-04-11T08:36:38.963Z,99.90
2023-04-11T08:39:06.711Z,99.90
2023-04-11T08:41:33.864Z,99.90
2023-04-11T08:44:00.927Z,99.90
2023-04-11T08:46:28.111Z,99.90
2023-04-11T08:48:55.173Z,99.90
2023-04-11T08:51:22.639Z,99.90
2023-04-11T08:53:50.528Z,99.90
2023-04-11T08:56:17.688Z,99.90
2023-04-11T08:58:44.784Z,99.90
2023-04-11T09:04:41.993Z,99.90
2023-04-11T09:07:11.243Z,99.90
2023-04-11T09:09:39.292Z,99.90
2023-04-11T09:12:06.795Z,99.90
2023-04-11T09:14:39.208Z,99.90
2023-04-11T09:17:13.188Z,99.90
2023-04-11T09:19:42.420Z,99.90
2023-04-11T09:22:09.570Z,99.90
2023-04-11T09:25:08.899Z,99.90
2023-04-11T09:27:36.263Z,99.90
2023-04-11T09:30:03.661Z,99.90
2023-04-11T09:36:17.848Z,99.90
2023-04-11T09:38:44.886Z,99.90
2023-04-11T09:41:12.381Z,99.90
2023-04-11T09:43:55.415Z,99.90
2023-04-11T09:46:23.035Z,99.90
2023-04-11T09:48:50.537Z,99.90
2023-04-11T09:51:34.143Z,99.90
2023-04-11T09:54:03.989Z,99.90
2023-04-11T09:56:31.745Z,99.90
2023-04-11T09:58:59.844Z,99.90
2023-04-11T10:01:27.452Z,99.90
2023-04-11T10:03:56.170Z,99.90
2023-04-11T10:06:34.947Z,99.90
2023-04-11T10:09:05.975Z,99.90
2023-04-11T10:11:33.032Z,99.90
2023-04-11T10:14:00.232Z,99.90
2023-04-11T10:16:31.290Z,99.90
2023-04-11T10:18:58.439Z,99.90
2023-04-11T10:21:32.749Z,99.90
2023-04-11T10:24:15.697Z,99.90
2023-04-11T10:26:51.161Z,99.90
2023-04-11T10:29:30.717Z,99.90
2023-04-11T10:32:17.552Z,99.90
2023-04-11T10:34:51.260Z,99.90
2023-04-11T10:37:18.642Z,99.90
2023-04-11T10:39:51.870Z,99.90
2023-04-11T10:42:34.316Z,99.90
2023-04-11T10:45:13.638Z,99.90
2023-04-11T10:47:42.218Z,99.90
2023-04-11T10:50:27.872Z,99.90
2023-04-11T10:52:55.505Z,99.90
2023-04-11T10:55:29.696Z,99.90
2023-04-11T10:58:09.945Z,99.90
2023-04-11T11:00:49.275Z,99.90
2023-04-11T11:03:19.684Z,99.90
2023-04-11T11:05:47.093Z,99.90
2023-04-11T11:08:14.343Z,99.90
2023-04-11T11:10:46.388Z,99.90
2023-04-11T11:13:16.540Z,99.90
2023-04-11T11:15:47.382Z,99.90
2023-04-11T11:18:14.613Z,99.90
2023-04-11T11:20:41.875Z,99.90
2023-04-11T11:23:09.670Z,99.90
2023-04-11T11:25:36.847Z,99.90
2023-04-11T11:28:07.792Z,99.90
2023-04-11T11:30:35.442Z,99.90
2023-04-11T11:33:16.198Z,99.90
2023-04-11T11:35:44.572Z,99.90
2023-04-11T11:38:13.631Z,99.90
2023-04-11T11:40:46.733Z,99.90
2023-04-11T11:43:13.992Z,99.90
2023-04-11T11:45:41.131Z,99.90
2023-04-11T11:48:08.371Z,99.90
2023-04-11T11:50:35.602Z,99.90
2023-04-11T11:53:15.469Z,99.90
2023-04-11T11:55:43.131Z,99.90
2023-04-11T11:58:10.432Z,99.90
2023-04-11T12:00:40.546Z,99.90
2023-04-11T12:03:11.993Z,99.90
2023-04-11T12:05:39.193Z,99.90
2023-04-11T12:08:07.257Z,99.90
2023-04-11T12:10:42.041Z,99.90
2023-04-11T12:13:19.894Z,99.90
2023-04-11T12:15:54.217Z,99.90
2023-04-11T12:18:23.879Z,99.90
2023-04-11T12:20:51.000Z,99.90
2023-04-11T12:23:18.357Z,99.90
2023-04-11T12:25:45.877Z,99.90
2023-04-11T12:28:13.185Z,99.90
2023-04-11T12:30:40.644Z,99.90
2023-04-11T12:33:07.950Z,99.90
2023-04-11T12:35:35.164Z,99.90
2023-04-11T12:38:02.351Z,99.90
2023-04-11T12:40:29.831Z,99.90
2023-04-11T12:42:57.632Z,99.90
2023-04-11T12:45:25.094Z,99.90
2023-04-11T12:47:52.314Z,99.90
2023-04-11T12:50:19.559Z,99.90
2023-04-11T12:52:48.593Z,99.90
2023-04-11T12:55:16.000Z,99.90
2023-04-11T12:57:43.694Z,99.90
2023-04-11T13:00:12.741Z,99.90
2023-04-11T13:02:44.089Z,99.90
2023-04-11T13:05:14.239Z,99.90
2023-04-11T13:07:42.060Z,99.90
2023-04-11T13:10:09.316Z,99.90
2023-04-11T13:12:45.904Z,99.90
2023-04-11T13:15:16.700Z,99.90
2023-04-11T13:17:44.042Z,99.90
2023-04-11T13:20:11.602Z,99.90
2023-04-11T13:22:42.262Z,99.90
2023-04-11T13:25:09.756Z,99.90
2023-04-11T13:27:37.627Z,99.90
2023-04-11T13:30:05.058Z,99.90
2023-04-11T13:32:32.359Z,99.90
2023-04-11T13:34:59.740Z,99.90
2023-04-11T13:37:26.821Z,99.90
2023-04-11T13:39:53.823Z,99.90
2023-04-11T13:42:23.793Z,99.90
2023-04-11T13:44:50.885Z,99.90
2023-04-11T13:47:18.044Z,99.90
2023-04-11T13:49:45.307Z,99.90
2023-04-11T13:52:12.384Z,99.90
2023-04-11T13:54:39.525Z,99.90
2023-04-11T13:57:09.332Z,99.90
2023-04-11T13:59:36.613Z,99.90
2023-04-11T14:02:03.761Z,99.90
2023-04-11T14:04:49.523Z,99.90
2023-04-11T14:07:16.633Z,99.90
2023-04-11T14:09:43.673Z,99.90
2023-04-11T14:12:10.788Z,99.90
2023-04-11T14:14:37.897Z,99.90
2023-04-11T14:17:05.055Z,99.90
2023-04-11T14:19:32.210Z,99.90
2023-04-11T14:21:59.372Z,99.90
2023-04-11T14:24:26.651Z,99.90
2023-04-11T14:26:53.990Z,99.90
2023-04-11T14:29:21.764Z,99.90
2023-04-11T14:31:50.161Z,99.90
2023-04-11T14:34:18.538Z,99.90
2023-04-11T14:36:45.785Z,99.90
2023-04-11T14:39:12.901Z,99.90
2023-04-11T14:41:40.016Z,99.90
2023-04-11T14:44:07.130Z,99.90
2023-04-11T14:46:34.733Z,99.90
2023-04-11T14:49:02.157Z,99.90
2023-04-11T14:51:29.692Z,99.90
2023-04-11T14:53:56.956Z,99.90
2023-04-11T14:56:24.258Z,99.90
2023-04-11T14:58:51.622Z,99.90
2023-04-11T15:01:19.030Z,99.90
2023-04-11T15:03:46.427Z,99.90
2023-04-11T15:06:13.591Z,99.90
2023-04-11T15:08:41.207Z,99.90
2023-04-11T15:11:08.363Z,99.90
2023-04-11T15:13:35.713Z,99.90
2023-04-11T15:16:02.883Z,99.90
2023-04-11T15:18:30.489Z,99.90
2023-04-11T15:21:01.901Z,99.90
2023-04-11T15:23:29.166Z,99.90
2023-04-11T15:25:57.958Z,99.90
2023-04-11T15:28:25.446Z,99.90
2023-04-11T15:30:53.845Z,99.90
2023-04-11T15:33:22.098Z,99.90
2023-04-11T15:35:50.271Z,99.90
2023-04-11T15:38:17.673Z,99.90
2023-04-11T15:40:48.796Z,99.90
2023-04-11T15:43:16.117Z,99.90
2023-04-11T15:45:44.376Z,99.90
2023-04-11T15:48:14.497Z,99.90
2023-04-11T15:50:42.916Z,99.90
2023-04-11T15:53:10.121Z,99.90
2023-04-11T15:55:41.794Z,99.90
2023-04-11T15:58:08.945Z,99.90
2023-04-11T16:00:36.525Z,99.90
2023-04-11T16:03:04.751Z,99.90
2023-04-11T16:05:32.278Z,99.90
2023-04-11T16:07:59.400Z,99.90
2023-04-11T16:10:26.619Z,99.90
2023-04-11T16:12:53.837Z,99.90
2023-04-11T16:15:21.132Z,99.90
2023-04-11T16:17:48.219Z,99.90
2023-04-11T16:20:18.746Z,99.90
2023-04-11T16:22:46.326Z,99.90
2023-04-11T16:25:20.887Z,99.90
2023-04-11T16:27:48.294Z,99.90
2023-04-11T16:30:15.637Z,99.90
2023-04-11T16:32:46.329Z,99.90
2023-04-11T16:35:13.529Z,99.90
2023-04-11T16:37:40.788Z,99.90
2023-04-11T16:40:11.264Z,99.90
2023-04-11T16:42:39.098Z,99.90
2023-04-11T16:45:06.507Z,99.90
2023-04-11T16:47:33.694Z,99.90
2023-04-11T16:50:00.923Z,99.90
2023-04-11T16:52:28.170Z,99.90
2023-04-11T16:54:55.612Z,99.90
2023-04-11T16:57:22.782Z,99.90
2023-04-11T16:59:49.848Z,99.90
2023-04-11T17:02:17.129Z,99.90
2023-04-11T17:04:44.290Z,99.90
2023-04-11T17:07:11.482Z,99.90
2023-04-11T17:09:38.530Z,99.90
2023-04-11T17:12:05.760Z,99.90
2023-04-11T17:14:34.815Z,99.90
2023-04-11T17:17:02.231Z,99.90
2023-04-11T17:19:29.504Z,99.90
2023-04-11T17:21:57.503Z,99.90
2023-04-11T17:24:24.771Z,99.90
2023-04-11T17:26:52.222Z,99.90
2023-04-11T17:29:20.208Z,99.90
2023-04-11T17:31:47.850Z,99.90
2023-04-11T17:34:15.070Z,99.90
2023-04-11T17:36:43.010Z,99.90
2023-04-11T17:39:16.920Z,99.90
2023-04-11T17:41:44.951Z,99.90
2023-04-11T17:44:12.236Z,99.90
2023-04-11T17:46:39.474Z,99.90
2023-04-11T17:49:06.654Z,99.90
2023-04-11T17:51:33.723Z,99.90
2023-04-11T17:54:00.873Z,99.90
2023-04-11T17:56:27.887Z,99.90
2023-04-11T17:58:56.181Z,99.90
2023-04-11T18:01:24.659Z,99.90
2023-04-11T18:03:52.062Z,99.90
2023-04-11T18:06:19.422Z,99.90
2023-04-11T18:08:51.463Z,99.90
2023-04-11T18:11:19.462Z,99.90
2023-04-11T18:13:49.786Z,99.90
2023-04-11T18:16:17.568Z,99.90
2023-04-11T18:18:45.818Z,99.90
2023-04-11T18:21:12.901Z,99.90
2023-04-11T18:23:40.073Z,99.90
2023-04-11T18:26:07.090Z,99.90
2023-04-11T18:28:34.220Z,99.90
2023-04-11T18:31:01.595Z,99.90
2023-04-11T18:33:29.047Z,99.90
2023-04-11T18:35:56.535Z,99.90
2023-04-11T18:38:23.726Z,99.90
2023-04-11T18:40:55.081Z,99.90
2023-04-11T18:43:23.815Z,99.90
2023-04-11T18:45:51.023Z,99.90
2023-04-11T18:48:18.252Z,99.90
2023-04-11T18:50:48.478Z,99.90
2023-04-11T18:53:16.152Z,99.90
2023-04-11T18:55:43.418Z,99.90
2023-04-11T18:58:13.138Z,99.90
2023-04-11T19:00:42.334Z,99.90
2023-04-11T19:03:15.292Z,99.90
2023-04-11T19:05:44.012Z,99.90
2023-04-11T19:08:11.390Z,99.90
2023-04-11T19:10:38.526Z,99.90
2023-04-11T19:13:05.866Z,99.90
2023-04-11T19:15:32.884Z,99.90
2023-04-11T19:18:00.104Z,99.90
2023-04-11T19:20:27.923Z,99.90
2023-04-11T19:22:55.079Z,99.90
2023-04-11T19:25:22.306Z,99.90
2023-04-11T19:27:50.982Z,99.90
2023-04-11T19:30:18.100Z,99.90
2023-04-11T19:32:47.353Z,99.90
2023-04-11T19:35:14.879Z,99.90
2023-04-11T19:37:42.553Z,99.90
2023-04-11T19:40:13.821Z,99.90
2023-04-11T19:42:41.722Z,99.90
2023-04-11T19:45:09.282Z,99.90
2023-04-11T19:47:36.438Z,99.90
2023-04-11T19:50:03.834Z,99.90
2023-04-11T19:52:31.099Z,99.90
2023-04-11T19:54:58.228Z,99.90
2023-04-11T19:57:26.423Z,99.90
2023-04-11T19:59:53.562Z,99.90
2023-04-11T20:02:21.250Z,99.90
2023-04-11T20:04:49.410Z,99.90
2023-04-11T20:07:16.614Z,99.90
2023-04-11T20:09:43.808Z,99.90
2023-04-11T20:12:11.060Z,99.90
2023-04-11T20:14:38.400Z,99.90
2023-04-11T20:17:06.062Z,99.90
2023-04-11T20:19:33.476Z,99.90
2023-04-11T20:22:01.224Z,99.90
2023-04-11T20:24:29.013Z,99.90
2023-04-11T20:26:57.074Z,99.90
2023-04-11T20:29:32.834Z,99.90
2023-04-11T20:32:00.170Z,99.90
2023-04-11T20:34:27.287Z,99.90
2023-04-11T20:36:54.372Z,99.90
2023-04-11T20:39:22.460Z,99.90
2023-04-11T20:41:50.050Z,99.90
2023-04-11T20:44:18.241Z,99.90
2023-04-11T20:46:46.072Z,99.90
2023-04-11T20:49:13.184Z,99.90
2023-04-11T20:51:41.063Z,99.90
2023-04-11T20:54:08.218Z,99.90
2023-04-11T20:56:36.140Z,99.90
2023-04-11T20:59:03.592Z,99.90
2023-04-11T21:01:32.584Z,99.90
2023-04-11T21:04:03.551Z,99.90
2023-04-11T21:06:31.693Z,99.90
2023-04-11T21:09:03.926Z,99.90
2023-04-11T21:11:31.414Z,99.90
2023-04-11T21:13:58.799Z,99.90
2023-04-11T21:16:26.176Z,99.90
2023-04-11T21:18:53.402Z,99.90
2023-04-11T21:21:20.594Z,99.90
2023-04-11T21:23:47.780Z,99.90
2023-04-11T21:26:14.977Z,99.90
2023-04-11T21:28:42.071Z,99.90
2023-04-11T21:31:09.336Z,99.90
2023-04-11T21:33:36.442Z,99.90
2023-04-11T21:36:03.683Z,99.90
2023-04-11T21:38:30.879Z,99.90
2023-04-11T21:40:58.063Z,99.90
2023-04-11T21:43:25.234Z,99.90
2023-04-11T21:45:52.394Z,99.90
2023-04-11T21:48:19.487Z,99.90
2023-04-11T21:50:46.754Z,99.90
2023-04-11T21:53:14.035Z,99.90
2023-04-11T21:55:45.599Z,99.90
2023-04-11T21:58:22.271Z,99.90
2023-04-11T22:00:56.078Z,99.90
2023-04-11T22:03:23.849Z,99.90
2023-04-11T22:05:52.349Z,99.90
2023-04-11T22:08:20.135Z,99.90
2023-04-11T22:10:48.532Z,99.90
2023-04-11T22:13:16.528Z,99.90
2023-04-11T22:15:43.818Z,99.90
2023-04-11T22:18:11.096Z,99.90
2023-04-11T22:20:45.727Z,99.90
2023-04-11T22:23:13.177Z,99.90
2023-04-11T22:25:42.147Z,99.90
2023-04-11T22:28:18.517Z,99.90
2023-04-11T22:30:46.904Z,99.90
2023-04-11T22:33:14.038Z,99.90
2023-04-11T22:35:43.809Z,99.90
2023-04-11T22:38:11.319Z,99.90
2023-04-11T22:40:41.342Z,99.90
2023-04-11T22:43:08.512Z,99.90
2023-04-11T22:45:36.290Z,99.90
2023-04-11T22:48:04.030Z,99.90
2023-04-11T22:50:37.255Z,99.90
2023-04-11T22:53:04.565Z,99.90
2023-04-11T22:55:34.425Z,99.90
2023-04-11T22:58:02.003Z,99.90
2023-04-11T23:00:30.230Z,99.90
2023-04-11T23:02:59.662Z,99.90
2023-04-11T23:05:27.004Z,99.90
2023-04-11T23:07:54.209Z,99.90
2023-04-11T23:10:21.348Z,99.90
2023-04-11T23:12:49.701Z,99.90
2023-04-11T23:15:17.349Z,99.90
2023-04-11T23:17:44.893Z,99.90
2023-04-11T23:20:12.757Z,99.90
2023-04-11T23:22:41.238Z,99.90
2023-04-11T23:25:10.839Z,99.90
2023-04-11T23:27:38.262Z,99.90
2023-04-11T23:30:11.618Z,99.90
2023-04-11T23:32:39.073Z,99.90
2023-04-11T23:35:06.561Z,99.90
2023-04-11T23:37:33.670Z,99.90
2023-04-11T23:40:07.166Z,99.90
2023-04-11T23:42:34.242Z,99.90
2023-04-11T23:45:01.332Z,99.90
2023-04-11T23:47:28.515Z,99.90
2023-04-11T23:49:55.657Z,99.90
2023-04-11T23:52:22.759Z,99.90
2023-04-11T23:54:50.356Z,99.90
2023-04-11T23:57:17.743Z,99.90
2023-04-11T23:59:44.879Z,99.90
